LEJR Airport Information

Runway Information
Runway 02 Length 7546 ft width 148 ft
Elevation 68 ft Threshold 0 ft Heading 21
Runway 20 Length 7546 ft Width 148 ft
Elevation 93 ft Threshold 0 ft Heading 201
Airport Frequencies
Type APP Name APP Frequency 128.5 MHZ
Type GND Name GND Frequency 121.6 MHZ
Type TWR Name TWR Frequency 118.55 MHZ
Airport Navaids
Type NDB Name Jerez Frequency 433 KHZ
Type VOR-DME Name Jerez Frequency 113000 KHZ
Airport Weather Information & NOTAM
ADDS - METARS form results

(1248 UTC 23 February 2019)
Data provider http://aviationweather.gov/metar/data/
 
METAR text: LEJR 231230Z 01010KT 340V050 CAVOK 21/08 Q1028
Conditions at: LEJR (JEREZ (CIV/MIL) , ES) observed 1230 UTC 23 February 2019
Temperature: 21.0°C (70°F)
Dewpoint: 8.0°C (46°F) [RH = 43%]
Pressure (altimeter): 30.35 inches Hg (1028.0 mb)
Winds: from the N (10 degrees) at 12 MPH (10 knots; 5.1 m/s)
Visibility: 6 or more miles (10+ km)
Ceiling: ceiling and visibility are OK
Clouds: unknown
Weather: no significant weather observed at this time

METAR text: LEJR 231200Z 01011KT CAVOK 20/09 Q1029
Conditions at: LEJR (JEREZ (CIV/MIL) , ES) observed 1200 UTC 23 February 2019
Temperature: 20.0°C (68°F)
Dewpoint: 9.0°C (48°F) [RH = 49%]
Pressure (altimeter): 30.38 inches Hg (1029.0 mb)
Winds: from the N (10 degrees) at 13 MPH (11 knots; 5.7 m/s)
Visibility: 6 or more miles (10+ km)
Ceiling: ceiling and visibility are OK
Clouds: unknown
Weather: no significant weather observed at this time

Forecast for: LEJR (JEREZ (CIV/MIL) , ES)
Text: TAF LEJR 231100Z 2312/2412 04006KT CAVOK TX25/2315Z TN04/2407Z
Forecast period: 1200 UTC 23 February 2019 to 1200 UTC 24 February 2019
Forecast type: FROM: standard forecast or significant change
Winds: from the NE (40 degrees) at 7 MPH (6 knots; 3.1 m/s)
Visibility: 6 or more miles 10+ km)
Ceiling: unknown
Clouds: missing
Weather: no significant weather forecast for this period